createdAt,value
2022-12-05T00:04:10.865Z,3.87
2022-12-05T00:08:22.501Z,3.81
2022-12-05T00:12:34.027Z,3.80
2022-12-05T00:16:45.725Z,3.85
2022-12-05T00:20:57.333Z,3.84
2022-12-05T00:25:09.285Z,3.83
2022-12-05T00:29:20.919Z,3.84
2022-12-05T00:33:32.451Z,3.78
2022-12-05T00:37:43.991Z,3.81
2022-12-05T00:41:55.496Z,3.76
2022-12-05T00:46:10.141Z,3.89
2022-12-05T00:50:21.745Z,3.84
2022-12-05T00:54:33.295Z,3.82
2022-12-05T00:58:45.565Z,3.88
2022-12-05T01:02:57.105Z,3.76
2022-12-05T01:07:08.658Z,3.83
2022-12-05T01:11:21.099Z,3.83
2022-12-05T01:15:36.975Z,3.90
2022-12-05T01:19:48.501Z,3.84
2022-12-05T01:24:00.101Z,3.84
2022-12-05T01:28:13.373Z,3.94
2022-12-05T01:32:24.958Z,3.91
2022-12-05T01:36:37.115Z,3.93
2022-12-05T01:40:48.763Z,3.90
2022-12-05T01:45:12.807Z,3.97
2022-12-05T01:49:32.987Z,3.95
2022-12-05T01:53:44.768Z,3.99
2022-12-05T01:57:57.576Z,3.98
2022-12-05T02:02:09.597Z,4.06
2022-12-05T02:06:22.690Z,4.10
2022-12-05T02:10:47.472Z,4.05
2022-12-05T02:15:27.040Z,4.12
2022-12-05T02:20:00.400Z,4.09
2022-12-05T02:24:50.604Z,4.12
2022-12-05T02:29:22.294Z,4.11
2022-12-05T02:33:48.574Z,4.11
2022-12-05T02:38:26.361Z,4.16
2022-12-05T02:43:00.970Z,4.24
2022-12-05T02:47:17.529Z,4.25
2022-12-05T02:51:33.833Z,4.22
2022-12-05T02:55:46.584Z,4.25
2022-12-05T02:59:58.324Z,4.24
2022-12-05T03:04:12.446Z,4.29
2022-12-05T03:08:34.396Z,4.26
2022-12-05T03:12:53.588Z,4.30
2022-12-05T03:17:13.934Z,4.35
2022-12-05T03:21:38.861Z,4.34
2022-12-05T03:26:00.939Z,4.39
2022-12-05T03:30:16.356Z,4.34
2022-12-05T03:35:06.524Z,4.35
2022-12-05T03:39:18.039Z,4.42
2022-12-05T03:43:54.402Z,4.45
2022-12-05T03:48:10.158Z,4.40
2022-12-05T03:52:50.995Z,4.44
2022-12-05T03:57:14.912Z,4.41
2022-12-05T04:01:29.434Z,4.43
2022-12-05T04:05:53.263Z,4.44
2022-12-05T04:10:16.223Z,4.47
2022-12-05T04:14:37.515Z,4.49
2022-12-05T04:19:24.443Z,4.50
2022-12-05T04:23:35.967Z,4.52
2022-12-05T04:28:21.843Z,4.51
2022-12-05T04:32:45.720Z,4.55
2022-12-05T04:37:04.338Z,4.52
2022-12-05T04:42:08.540Z,4.58
2022-12-05T04:46:22.396Z,4.57
2022-12-05T04:50:35.861Z,4.61
2022-12-05T04:54:53.165Z,4.63
2022-12-05T04:59:05.306Z,4.61
2022-12-05T05:03:24.824Z,4.63
2022-12-05T05:07:47.554Z,4.62
2022-12-05T05:11:59.078Z,4.68
2022-12-05T05:16:22.560Z,4.67
2022-12-05T05:20:34.065Z,4.64
2022-12-05T05:24:45.537Z,4.70
2022-12-05T05:28:58.165Z,4.73
2022-12-05T05:33:09.743Z,4.72
2022-12-05T05:37:21.243Z,4.74
2022-12-05T05:41:35.492Z,4.76
2022-12-05T05:45:46.973Z,4.75
2022-12-05T05:49:58.709Z,4.78
2022-12-05T05:54:10.378Z,4.82
2022-12-05T05:58:22.380Z,4.84
2022-12-05T06:02:35.502Z,4.83
2022-12-05T06:06:47.047Z,4.79
2022-12-05T06:10:58.803Z,4.81
2022-12-05T06:15:10.734Z,4.82
2022-12-05T06:19:22.514Z,4.83
2022-12-05T06:23:35.483Z,4.83
2022-12-05T06:27:46.899Z,4.84
2022-12-05T06:31:58.370Z,4.87
2022-12-05T06:36:16.363Z,4.88
2022-12-05T06:40:27.863Z,4.89
2022-12-05T06:44:39.376Z,4.91
2022-12-05T06:48:53.659Z,4.93
2022-12-05T06:53:05.136Z,4.88
2022-12-05T06:57:16.649Z,4.94
2022-12-05T07:01:43.846Z,4.85
2022-12-05T07:05:55.472Z,4.95
2022-12-05T07:10:07.655Z,4.92
2022-12-05T07:14:45.689Z,4.96
2022-12-05T07:18:50.712Z,4.97
2022-12-05T07:23:02.168Z,4.96
2022-12-05T07:27:14.865Z,4.95
2022-12-05T07:31:26.487Z,5.03
2022-12-05T07:35:38.095Z,4.97
2022-12-05T07:39:50.781Z,5.02
2022-12-05T07:44:02.335Z,5.06
2022-12-05T07:48:18.303Z,5.08
2022-12-05T07:52:30.370Z,5.08
2022-12-05T07:56:47.435Z,5.03
2022-12-05T08:01:10.380Z,5.09
2022-12-05T08:05:21.964Z,5.12
2022-12-05T08:09:33.472Z,5.11
2022-12-05T08:13:44.984Z,5.12
2022-12-05T08:17:56.836Z,5.15
2022-12-05T08:22:08.405Z,5.16
2022-12-05T08:26:24.660Z,5.16
2022-12-05T08:30:36.374Z,5.22
2022-12-05T08:34:47.900Z,5.21
2022-12-05T08:39:02.977Z,5.25
2022-12-05T08:43:14.600Z,5.28
2022-12-05T08:47:26.204Z,5.31
2022-12-05T08:51:38.087Z,5.22
2022-12-05T08:55:49.652Z,5.25
2022-12-05T09:00:01.248Z,5.26
2022-12-05T09:04:13.135Z,5.31
2022-12-05T09:08:24.629Z,5.35
2022-12-05T09:12:39.962Z,5.36
2022-12-05T09:16:51.588Z,5.34
2022-12-05T09:21:11.493Z,5.38
2022-12-05T09:25:22.972Z,5.39
2022-12-05T09:29:34.541Z,5.40
2022-12-05T09:33:47.640Z,5.41
2022-12-05T09:37:59.234Z,5.46
2022-12-05T09:42:18.599Z,5.49
2022-12-05T09:46:48.256Z,5.47
2022-12-05T09:51:02.937Z,5.51
2022-12-05T09:55:17.592Z,5.55
2022-12-05T09:59:29.157Z,5.52
2022-12-05T10:04:04.757Z,5.64
2022-12-05T10:08:22.604Z,5.65
2022-12-05T10:13:00.733Z,5.63
2022-12-05T10:17:33.032Z,5.65
2022-12-05T10:22:01.049Z,5.71
2022-12-05T10:26:16.359Z,5.74
2022-12-05T10:30:32.257Z,5.78
2022-12-05T10:34:45.727Z,5.78
2022-12-05T10:38:58.908Z,5.84
2022-12-05T10:43:14.313Z,5.86
2022-12-05T10:47:25.930Z,5.91
2022-12-05T10:51:38.904Z,5.90
2022-12-05T10:56:28.096Z,5.97
2022-12-05T11:00:30.201Z,6.01
2022-12-05T11:04:45.072Z,6.01
2022-12-05T11:09:04.787Z,6.06
2022-12-05T11:13:25.065Z,6.08
2022-12-05T11:17:39.366Z,6.14
2022-12-05T11:21:51.390Z,6.15
2022-12-05T11:26:03.286Z,6.16
2022-12-05T11:30:20.206Z,6.22
2022-12-05T11:34:50.422Z,6.24
2022-12-05T11:39:02.057Z,6.23
2022-12-05T11:43:42.848Z,6.30
2022-12-05T11:48:18.039Z,6.19
2022-12-05T11:52:42.421Z,6.25
2022-12-05T11:57:12.042Z,6.25
2022-12-05T12:02:07.923Z,6.25
2022-12-05T12:06:52.262Z,6.18
2022-12-05T12:11:07.867Z,6.24
2022-12-05T12:15:52.298Z,6.18
2022-12-05T12:20:25.137Z,6.15
2022-12-05T12:24:45.563Z,6.09
2022-12-05T12:29:32.060Z,6.08
2022-12-05T12:33:52.827Z,6.00
2022-12-05T12:38:25.727Z,5.96
2022-12-05T12:43:04.150Z,5.97
2022-12-05T12:47:39.986Z,6.07
2022-12-05T12:52:03.168Z,6.07
2022-12-05T12:56:17.627Z,6.10
2022-12-05T13:00:38.119Z,6.10
2022-12-05T13:04:59.201Z,5.99
2022-12-05T13:09:29.389Z,6.00
2022-12-05T13:13:48.417Z,6.02
2022-12-05T13:18:01.232Z,6.09
2022-12-05T13:22:14.092Z,6.05
2022-12-05T13:26:25.714Z,6.09
2022-12-05T13:30:57.288Z,6.17
2022-12-05T13:35:12.406Z,6.12
2022-12-05T13:39:42.573Z,6.19
2022-12-05T13:44:05.692Z,6.26
2022-12-05T13:48:23.750Z,6.39
2022-12-05T13:53:06.419Z,6.45
2022-12-05T13:57:39.612Z,6.52
2022-12-05T14:01:55.980Z,6.46
2022-12-05T14:06:08.069Z,6.47
2022-12-05T14:10:44.488Z,6.50
2022-12-05T14:14:56.025Z,6.43
2022-12-05T14:19:34.499Z,6.49
2022-12-05T14:23:57.355Z,6.48
2022-12-05T14:28:50.021Z,6.55
2022-12-05T14:33:02.867Z,6.45
2022-12-05T14:37:17.373Z,6.53
2022-12-05T14:41:35.394Z,6.47
2022-12-05T14:45:52.970Z,6.53
2022-12-05T14:50:33.802Z,6.51
2022-12-05T14:54:46.727Z,6.50
2022-12-05T14:59:07.875Z,6.41
2022-12-05T15:03:25.328Z,6.44
2022-12-05T15:07:39.384Z,6.40
2022-12-05T15:11:51.639Z,6.39
2022-12-05T15:16:13.218Z,6.41
2022-12-05T15:20:40.669Z,6.55
2022-12-05T15:24:52.548Z,6.49
2022-12-05T15:29:23.578Z,6.44
2022-12-05T15:33:35.284Z,6.41
2022-12-05T15:37:53.968Z,6.49
2022-12-05T15:42:14.637Z,6.38
2022-12-05T15:46:28.024Z,6.42
2022-12-05T15:50:47.484Z,6.40
2022-12-05T15:55:03.091Z,6.36
2022-12-05T15:59:23.925Z,6.40
2022-12-05T16:03:45.711Z,6.37
2022-12-05T16:07:57.792Z,6.39
2022-12-05T16:12:23.907Z,6.31
2022-12-05T16:16:38.549Z,6.30
2022-12-05T16:20:50.280Z,6.32
2022-12-05T16:25:04.757Z,6.35
2022-12-05T16:29:30.974Z,6.38
2022-12-05T16:33:44.061Z,6.39
2022-12-05T16:38:10.142Z,6.30
2022-12-05T16:42:29.088Z,6.38
2022-12-05T16:46:42.962Z,6.32
2022-12-05T16:51:39.437Z,6.36
2022-12-05T16:55:51.169Z,6.29
2022-12-05T17:00:06.397Z,6.33
2022-12-05T17:04:18.048Z,6.32
2022-12-05T17:08:29.750Z,6.36
2022-12-05T17:12:47.576Z,6.25
2022-12-05T17:17:02.322Z,6.23
2022-12-05T17:21:20.851Z,6.34
2022-12-05T17:25:37.011Z,6.34
2022-12-05T17:29:48.527Z,6.32
2022-12-05T17:34:00.043Z,6.34
2022-12-05T17:38:11.643Z,6.31
2022-12-05T17:42:23.211Z,6.31
2022-12-05T17:46:34.872Z,6.35
2022-12-05T17:50:48.822Z,6.41
2022-12-05T17:55:00.769Z,6.38
2022-12-05T17:59:12.547Z,6.39
2022-12-05T18:03:24.650Z,6.45
2022-12-05T18:07:37.308Z,6.36
2022-12-05T18:11:48.820Z,6.39
2022-12-05T18:16:01.394Z,6.41
2022-12-05T18:20:37.752Z,6.45
2022-12-05T18:24:49.364Z,6.45
2022-12-05T18:29:00.953Z,6.47
2022-12-05T18:33:12.502Z,6.42
2022-12-05T18:37:24.635Z,6.45
2022-12-05T18:41:36.173Z,6.41
2022-12-05T18:45:55.118Z,6.48
2022-12-05T18:50:07.376Z,6.41
2022-12-05T18:54:19.294Z,6.41
2022-12-05T18:58:31.093Z,6.44
2022-12-05T19:02:42.623Z,6.52
2022-12-05T19:06:56.349Z,6.53
2022-12-05T19:11:08.124Z,6.42
2022-12-05T19:15:19.816Z,6.40
2022-12-05T19:19:31.427Z,6.42
2022-12-05T19:23:42.967Z,6.48
2022-12-05T19:27:54.561Z,6.48
2022-12-05T19:32:06.629Z,6.46
2022-12-05T19:36:24.066Z,6.42
2022-12-05T19:40:35.601Z,6.44
2022-12-05T19:44:47.151Z,6.50
2022-12-05T19:49:02.525Z,6.43
2022-12-05T19:53:14.023Z,6.46
2022-12-05T19:57:29.827Z,6.41
2022-12-05T20:01:43.171Z,6.46
2022-12-05T20:05:58.145Z,6.44
2022-12-05T20:10:10.222Z,6.43
2022-12-05T20:14:23.237Z,6.40
2022-12-05T20:18:39.914Z,6.48
2022-12-05T20:22:53.051Z,6.41
2022-12-05T20:27:06.264Z,6.45
2022-12-05T20:31:19.213Z,6.53
2022-12-05T20:35:30.824Z,6.46
2022-12-05T20:39:43.274Z,6.50
2022-12-05T20:43:58.668Z,6.40
2022-12-05T20:48:10.197Z,6.37
2022-12-05T20:52:21.719Z,6.31
2022-12-05T20:56:35.912Z,6.44
2022-12-05T21:00:47.411Z,6.31
2022-12-05T21:04:58.872Z,6.33
2022-12-05T21:09:27.336Z,6.28
2022-12-05T21:13:39.250Z,6.33
2022-12-05T21:17:50.723Z,6.31
2022-12-05T21:22:02.279Z,6.36
2022-12-05T21:26:16.592Z,6.29
2022-12-05T21:30:28.123Z,6.31
2022-12-05T21:34:39.828Z,6.33
2022-12-05T21:38:55.991Z,6.29
2022-12-05T21:43:08.249Z,6.28
2022-12-05T21:47:19.890Z,6.23
2022-12-05T21:51:31.417Z,6.27
2022-12-05T21:55:43.463Z,6.37
2022-12-05T21:59:55.078Z,6.27
2022-12-05T22:04:06.739Z,6.26
2022-12-05T22:08:18.346Z,6.31
2022-12-05T22:12:33.184Z,6.32
2022-12-05T22:16:44.761Z,6.36
2022-12-05T22:20:57.519Z,6.38
2022-12-05T22:25:09.427Z,6.27
2022-12-05T22:29:20.931Z,6.31
2022-12-05T22:33:35.496Z,6.32
2022-12-05T22:37:47.040Z,6.33
2022-12-05T22:41:59.157Z,6.32
2022-12-05T22:46:14.034Z,6.40
2022-12-05T22:50:25.605Z,6.34
2022-12-05T22:54:37.139Z,6.32
2022-12-05T22:58:52.551Z,6.29
2022-12-05T23:03:04.855Z,6.31
2022-12-05T23:07:16.422Z,6.28
2022-12-05T23:11:29.704Z,6.24
2022-12-05T23:15:41.406Z,6.24
2022-12-05T23:19:53.023Z,6.26
2022-12-05T23:24:07.627Z,6.24
2022-12-05T23:28:19.183Z,6.27
2022-12-05T23:32:30.765Z,6.35
2022-12-05T23:36:42.355Z,6.42
2022-12-05T23:41:00.266Z,6.43
2022-12-05T23:45:11.923Z,6.38
2022-12-05T23:49:23.643Z,6.45
2022-12-05T23:53:38.202Z,6.48
2022-12-05T23:57:49.733Z,6.48
